Time;durP1;ratioP1;P1;durP2;ratioP2;P2;SDS_P1;SDS_P2;PMS_P1;PMS_P2;Temp;Humidity;BMP_temperature;BMP_pressure;BME280_temperature;BME280_humidity;BME280_pressure;Samples;Min_cycle;Max_cycle;Signal;HPM_P1;HPM_P2
2023/01/04 00:01:21;;;;;;;57.90;28.97;;;11.20;99.00;;;;;;5038622;28;20209;-65
2023/01/04 00:03:48;;;;;;;62.37;30.00;;;11.30;99.00;;;;;;5039855;28;20206;-65
2023/01/04 00:06:16;;;;;;;52.80;28.37;;;11.30;99.00;;;;;;5035947;28;20222;-65
2023/01/04 00:08:43;;;;;;;57.37;30.13;;;11.30;99.00;;;;;;5039011;28;20544;-65
2023/01/04 00:11:16;;;;;;;68.07;32.43;;;11.30;99.00;;;;;;5037124;28;20208;-65
2023/01/04 00:13:45;;;;;;;64.53;30.77;;;11.30;99.00;;;;;;5036721;28;20233;-65
2023/01/04 00:16:14;;;;;;;61.90;29.77;;;11.30;99.00;;;;;;5036267;28;20211;-65
2023/01/04 00:18:42;;;;;;;65.30;30.20;;;11.30;99.00;;;;;;5035736;28;20220;-65
2023/01/04 00:21:18;;;;;;;68.90;29.63;;;11.30;99.00;;;;;;5025180;28;20226;-65
2023/01/04 00:23:48;;;;;;;53.20;28.60;;;11.30;99.00;;;;;;5037203;28;20200;-65
2023/01/04 00:26:21;;;;;;;63.03;30.60;;;11.30;99.00;;;;;;5037397;28;20217;-65
2023/01/04 00:28:52;;;;;;;64.10;28.97;;;11.30;99.00;;;;;;5035086;28;20230;-65
2023/01/04 00:31:21;;;;;;;64.57;31.87;;;11.30;99.00;;;;;;5036343;28;20231;-65
2023/01/04 00:33:49;;;;;;;72.73;31.83;;;11.30;99.00;;;;;;5037289;28;20214;-65
2023/01/04 00:36:16;;;;;;;85.90;33.60;;;11.30;99.00;;;;;;5035753;28;20206;-65
2023/01/04 00:38:43;;;;;;;81.80;34.93;;;11.30;99.00;;;;;;5036238;28;20224;-65
2023/01/04 00:41:12;;;;;;;88.23;35.63;;;11.30;99.00;;;;;;5035938;28;20630;-65
2023/01/04 00:44:02;;;;;;;94.80;34.70;;;11.30;99.00;;;;;;5037834;28;20260;-65
2023/01/04 00:46:30;;;;;;;77.77;32.77;;;11.30;99.00;;;;;;5036694;28;20242;-65
2023/01/04 00:48:59;;;;;;;80.47;34.60;;;11.30;99.00;;;;;;5039954;28;20210;-65
2023/01/04 00:51:28;;;;;;;107.80;38.87;;;11.30;99.00;;;;;;5042156;28;20201;-65
2023/01/04 00:53:59;;;;;;;109.83;35.90;;;11.30;99.00;;;;;;5038920;28;20245;-65
2023/01/04 00:56:30;;;;;;;103.27;35.83;;;11.20;99.00;;;;;;5041097;28;20197;-65
2023/01/04 00:59:00;;;;;;;103.37;36.13;;;11.20;99.00;;;;;;5036438;28;20220;-65
2023/01/04 01:01:29;;;;;;;94.47;36.23;;;11.20;99.00;;;;;;5038823;28;20781;-65
2023/01/04 01:04:00;;;;;;;104.40;38.53;;;11.30;99.10;;;;;;5035365;28;20298;-65
2023/01/04 01:06:29;;;;;;;101.83;34.97;;;11.20;99.10;;;;;;5035571;28;20648;-65
2023/01/04 01:08:57;;;;;;;110.07;36.47;;;11.30;99.20;;;;;;5036109;28;20526;-65
2023/01/04 01:11:24;;;;;;;114.57;35.57;;;11.20;99.20;;;;;;5037141;28;20211;-65
2023/01/04 01:13:51;;;;;;;130.57;37.70;;;11.20;99.20;;;;;;5037147;28;20252;-65
2023/01/04 01:16:21;;;;;;;111.60;37.63;;;11.20;99.20;;;;;;5037660;28;20274;-65
2023/01/04 01:19:08;;;;;;;122.20;36.70;;;11.30;99.20;;;;;;5035950;28;20210;-65
2023/01/04 01:21:36;;;;;;;124.73;36.40;;;11.20;99.20;;;;;;5041006;28;20204;-65
2023/01/04 01:24:04;;;;;;;111.73;35.73;;;11.20;99.20;;;;;;5032043;28;20214;-65
2023/01/04 01:26:31;;;;;;;112.37;34.50;;;11.30;99.30;;;;;;5034340;28;20233;-65
2023/01/04 01:28:58;;;;;;;117.87;36.17;;;11.20;99.30;;;;;;5032490;28;20208;-65
2023/01/04 01:31:27;;;;;;;122.97;36.93;;;11.20;99.30;;;;;;5037213;28;20197;-65
2023/01/04 01:33:55;;;;;;;118.00;35.73;;;11.30;99.30;;;;;;5039798;28;20203;-65
2023/01/04 01:36:25;;;;;;;106.93;35.00;;;11.30;99.40;;;;;;5036366;28;20203;-65
2023/01/04 01:38:52;;;;;;;107.73;36.70;;;11.20;99.40;;;;;;5040459;28;20206;-65
2023/01/04 01:41:22;;;;;;;130.93;37.90;;;11.20;99.40;;;;;;5037762;28;20700;-65
2023/01/04 01:43:52;;;;;;;120.87;35.47;;;11.20;99.40;;;;;;5033614;28;20210;-65
2023/01/04 01:46:37;;;;;;;149.33;36.13;;;11.30;99.40;;;;;;5035620;28;20624;-65
2023/01/04 01:49:26;;;;;;;114.90;35.97;;;11.30;99.50;;;;;;5035893;28;20225;-65
2023/01/04 01:51:56;;;;;;;130.67;35.87;;;11.30;99.50;;;;;;5043415;28;20199;-65
2023/01/04 01:54:28;;;;;;;125.83;33.90;;;11.20;99.40;;;;;;5037613;28;20648;-65
2023/01/04 01:56:58;;;;;;;137.13;36.27;;;11.30;99.50;;;;;;5036953;28;20221;-65
2023/01/04 01:59:26;;;;;;;145.37;34.70;;;11.30;99.50;;;;;;5034584;28;20651;-65
2023/01/04 02:01:53;;;;;;;147.20;38.43;;;11.30;99.80;;;;;;5037556;28;20194;-65
2023/01/04 02:04:20;;;;;;;146.80;36.07;;;11.30;99.50;;;;;;5035927;28;20218;-65
2023/01/04 02:06:54;;;;;;;118.37;36.70;;;11.20;99.50;;;;;;5036933;28;20568;-65
2023/01/04 02:09:22;;;;;;;128.37;36.97;;;11.30;99.50;;;;;;5040988;28;20205;-65
2023/01/04 02:11:49;;;;;;;132.53;36.57;;;11.30;99.50;;;;;;5033458;28;20601;-65
2023/01/04 02:14:27;;;;;;;145.87;38.37;;;11.30;99.50;;;;;;5035173;28;20236;-65
2023/01/04 02:17:15;;;;;;;130.60;37.30;;;11.30;99.60;;;;;;5035447;28;20650;-65
2023/01/04 02:20:16;;;;;;;121.10;35.07;;;11.30;99.60;;;;;;5038413;28;20194;-65
2023/01/04 02:23:24;;;;;;;129.80;37.73;;;11.20;99.50;;;;;;5031089;28;20651;-65
2023/01/04 02:26:09;;;;;;;124.00;36.73;;;11.20;99.60;;;;;;5033401;28;20643;-65
2023/01/04 02:28:42;;;;;;;118.53;36.07;;;11.30;99.60;;;;;;5030662;28;20230;-66
2023/01/04 02:31:30;;;;;;;148.53;39.23;;;11.20;99.60;;;;;;5034800;28;20201;-65
2023/01/04 02:34:04;;;;;;;149.13;38.03;;;11.30;99.60;;;;;;5035307;28;20195;-65
2023/01/04 02:36:41;;;;;;;130.13;36.07;;;11.20;99.60;;;;;;5034912;28;20197;-65
2023/01/04 02:39:15;;;;;;;147.13;38.67;;;11.30;99.60;;;;;;5037577;28;20214;-65
2023/01/04 02:41:48;;;;;;;142.23;37.23;;;11.30;99.70;;;;;;5034485;28;20198;-65
2023/01/04 02:50:30;;;;;;;142.00;40.97;;;11.30;99.70;;;;;;5038278;28;20285;-65
2023/01/04 02:53:22;;;;;;;135.27;37.93;;;11.20;99.60;;;;;;5036871;28;20202;-65
2023/01/04 02:56:14;;;;;;;160.60;41.93;;;11.20;99.70;;;;;;5034101;28;20213;-66
2023/01/04 02:59:03;;;;;;;148.10;40.10;;;11.20;99.70;;;;;;5034008;28;20239;-65
2023/01/04 03:07:49;;;;;;;132.30;38.00;;;11.20;99.70;;;;;;5036865;28;20231;-65
2023/01/04 03:10:18;;;;;;;137.57;38.20;;;11.20;99.70;;;;;;5034125;28;20210;-65
2023/01/04 03:12:53;;;;;;;150.33;38.97;;;11.20;99.70;;;;;;5033547;28;20209;-65
2023/01/04 03:15:24;;;;;;;135.57;39.13;;;11.20;99.70;;;;;;5035436;28;20238;-66
2023/01/04 03:18:14;;;;;;;142.07;37.30;;;11.20;99.70;;;;;;5041250;28;20207;-65
2023/01/04 03:20:43;;;;;;;126.37;37.53;;;11.20;99.70;;;;;;5040025;28;20205;-65
2023/01/04 03:37:49;;;;;;;120.70;38.50;;;11.20;99.70;;;;;;5036062;28;20245;-65
2023/01/04 03:49:48;;;;;;;106.07;35.07;;;11.10;99.70;;;;;;5041579;28;20195;-65
2023/01/04 03:52:16;;;;;;;107.37;33.83;;;11.10;99.70;;;;;;5036562;28;20244;-65
2023/01/04 03:54:47;;;;;;;116.20;34.27;;;11.10;99.80;;;;;;5036619;28;20239;-66
2023/01/04 03:57:14;;;;;;;108.47;37.27;;;11.10;99.80;;;;;;5035073;28;20195;-65
2023/01/04 03:59:48;;;;;;;107.40;35.87;;;11.10;99.80;;;;;;5039880;28;20652;-65
2023/01/04 04:02:21;;;;;;;106.37;36.30;;;11.10;99.80;;;;;;5040134;28;20209;-65
2023/01/04 04:10:19;;;;;;;104.17;35.47;;;11.10;99.80;;;;;;5034547;28;20230;-65
2023/01/04 04:12:47;;;;;;;101.00;33.50;;;11.10;99.80;;;;;;5037219;28;20199;-65
2023/01/04 04:15:15;;;;;;;100.17;33.30;;;11.10;99.80;;;;;;5050150;28;20238;-65
2023/01/04 04:17:42;;;;;;;102.87;34.40;;;11.10;99.80;;;;;;5038573;28;20620;-65
2023/01/04 04:20:11;;;;;;;95.80;32.10;;;11.10;99.80;;;;;;5037653;28;20240;-65
2023/01/04 04:22:39;;;;;;;101.23;34.27;;;11.10;99.80;;;;;;5037103;28;20619;-65
2023/01/04 04:25:06;;;;;;;107.00;36.53;;;11.20;99.90;;;;;;5036910;28;20200;-65
2023/01/04 04:27:33;;;;;;;94.77;33.37;;;11.10;99.80;;;;;;5031999;28;20640;-65
2023/01/04 04:30:01;;;;;;;91.83;33.63;;;11.10;99.80;;;;;;5037105;28;20573;-65
2023/01/04 04:32:28;;;;;;;91.60;32.90;;;11.10;99.80;;;;;;5039977;28;20197;-65
2023/01/04 04:34:55;;;;;;;103.50;33.27;;;11.10;99.80;;;;;;5034917;28;20272;-65
2023/01/04 04:37:22;;;;;;;92.20;34.50;;;11.10;99.80;;;;;;5031050;28;20265;-65
2023/01/04 04:39:49;;;;;;;97.90;32.97;;;11.20;99.80;;;;;;5036990;28;20213;-65
2023/01/04 04:42:16;;;;;;;88.47;31.90;;;11.10;99.80;;;;;;5033691;28;20198;-66
2023/01/04 04:44:43;;;;;;;92.30;32.90;;;11.10;99.80;;;;;;5038710;28;20207;-65
2023/01/04 04:47:10;;;;;;;94.20;34.60;;;11.10;99.80;;;;;;5035593;28;20268;-65
2023/01/04 04:49:37;;;;;;;96.83;34.23;;;11.10;99.80;;;;;;5035759;28;20208;-65
2023/01/04 04:52:04;;;;;;;91.07;33.80;;;11.10;99.80;;;;;;5039392;28;20539;-65
2023/01/04 04:54:31;;;;;;;100.07;34.57;;;11.10;99.80;;;;;;5037675;28;20210;-65
2023/01/04 04:56:58;;;;;;;82.37;32.27;;;11.10;99.80;;;;;;5038827;28;20514;-65
2023/01/04 04:59:25;;;;;;;99.17;33.47;;;11.10;99.80;;;;;;5036352;28;20553;-66
2023/01/04 05:01:52;;;;;;;92.70;32.27;;;11.10;99.80;;;;;;5038423;28;20214;-65
2023/01/04 05:04:19;;;;;;;89.30;31.73;;;11.10;99.90;;;;;;5037270;28;20255;-65
2023/01/04 05:06:48;;;;;;;92.17;32.83;;;11.10;99.90;;;;;;5036919;28;20203;-65
2023/01/04 05:09:15;;;;;;;80.47;32.93;;;11.10;99.80;;;;;;5040896;28;20218;-65
2023/01/04 05:14:28;;;;;;;91.27;32.43;;;11.20;99.90;;;;;;5035992;28;20650;-65
2023/01/04 05:16:55;;;;;;;92.40;34.03;;;11.20;99.90;;;;;;5039264;28;20201;-65
2023/01/04 05:19:23;;;;;;;84.47;31.17;;;11.20;99.90;;;;;;5040650;28;20197;-65
2023/01/04 05:21:50;;;;;;;81.40;32.27;;;11.20;99.90;;;;;;5040025;28;20249;-65
2023/01/04 05:24:17;;;;;;;88.57;33.13;;;11.20;99.80;;;;;;5034398;28;20203;-65
2023/01/04 05:26:44;;;;;;;86.73;34.60;;;11.20;99.80;;;;;;5034333;28;20198;-65
2023/01/04 05:30:49;;;;;;;88.20;32.40;;;11.20;99.80;;;;;;5035509;28;20674;-65
2023/01/04 05:31:57;;;;;;;80.87;33.87;;;11.20;99.80;;;;;;5038255;28;20212;-65
2023/01/04 05:34:25;;;;;;;92.07;36.77;;;11.20;99.80;;;;;;5035622;28;20647;-65
2023/01/04 05:36:52;;;;;;;79.67;34.43;;;11.20;99.80;;;;;;5032715;28;20543;-65
2023/01/04 05:39:19;;;;;;;84.53;35.13;;;11.30;99.80;;;;;;5040448;28;20586;-65
2023/01/04 05:44:31;;;;;;;76.50;33.93;;;11.20;99.80;;;;;;5036010;28;20555;-65
2023/01/04 05:46:58;;;;;;;78.97;34.37;;;11.30;99.80;;;;;;5034236;28;20213;-65
2023/01/04 05:49:25;;;;;;;81.70;32.97;;;11.30;99.90;;;;;;5042491;28;20218;-65
2023/01/04 05:51:52;;;;;;;85.90;34.90;;;11.30;99.80;;;;;;5034865;28;20218;-65
2023/01/04 05:54:19;;;;;;;83.03;33.57;;;11.30;99.80;;;;;;5037852;28;20203;-65
2023/01/04 05:56:47;;;;;;;83.40;34.30;;;11.30;99.80;;;;;;5034400;28;20237;-65
2023/01/04 05:59:14;;;;;;;81.80;34.27;;;11.30;99.70;;;;;;5036243;28;20230;-65
2023/01/04 06:01:42;;;;;;;82.30;32.90;;;11.30;99.70;;;;;;5036093;28;20202;-65
2023/01/04 06:04:09;;;;;;;82.00;32.97;;;11.40;99.70;;;;;;5035742;28;20219;-65
2023/01/04 06:06:36;;;;;;;85.47;31.80;;;11.30;99.70;;;;;;5034142;28;20199;-65
2023/01/04 06:09:03;;;;;;;78.17;33.17;;;11.40;99.70;;;;;;5037994;28;20222;-65
2023/01/04 06:11:30;;;;;;;83.37;32.33;;;11.30;99.60;;;;;;5036682;28;20214;-65
2023/01/04 06:13:57;;;;;;;77.97;32.97;;;11.40;99.70;;;;;;5033767;28;21007;-65
2023/01/04 06:16:24;;;;;;;76.30;33.43;;;11.40;99.70;;;;;;5033945;28;20230;-65
2023/01/04 06:18:51;;;;;;;74.40;33.90;;;11.30;99.60;;;;;;5036061;28;20657;-65
2023/01/04 06:21:18;;;;;;;82.53;32.97;;;11.40;99.60;;;;;;5037024;28;20258;-65
2023/01/04 06:23:45;;;;;;;78.50;33.10;;;11.30;99.60;;;;;;5035632;28;20290;-65
2023/01/04 06:26:12;;;;;;;71.00;32.90;;;11.40;99.60;;;;;;5035832;28;20614;-66
2023/01/04 06:28:39;;;;;;;86.03;32.13;;;11.40;99.60;;;;;;5033329;28;20226;-65
2023/01/04 06:31:09;;;;;;;79.37;33.53;;;11.30;99.50;;;;;;5036636;28;20260;-65
2023/01/04 06:33:37;;;;;;;77.30;32.43;;;11.40;99.60;;;;;;5033106;28;20211;-65
2023/01/04 06:36:05;;;;;;;85.50;34.93;;;11.30;99.60;;;;;;5035041;28;20203;-65
2023/01/04 06:38:33;;;;;;;76.90;33.70;;;11.40;99.60;;;;;;5034754;28;20208;-65
2023/01/04 06:41:00;;;;;;;92.77;36.50;;;11.30;99.60;;;;;;5035389;28;20225;-65
2023/01/04 06:43:27;;;;;;;82.53;34.37;;;11.30;99.60;;;;;;5035656;28;20202;-65
2023/01/04 06:45:54;;;;;;;81.57;34.17;;;11.40;99.60;;;;;;5035228;28;20578;-65
2023/01/04 06:48:21;;;;;;;89.47;35.63;;;11.40;99.90;;;;;;5036015;28;20218;-65
2023/01/04 06:50:48;;;;;;;93.90;35.70;;;11.40;99.60;;;;;;5038623;28;20201;-65
2023/01/04 06:53:15;;;;;;;84.50;36.23;;;11.40;99.60;;;;;;5036000;28;20204;-65
2023/01/04 06:55:43;;;;;;;84.80;34.33;;;11.40;99.60;;;;;;5018117;28;20206;-65
2023/01/04 06:58:10;;;;;;;90.10;34.67;;;11.40;99.60;;;;;;5031696;28;20201;-65
2023/01/04 07:00:37;;;;;;;95.00;35.57;;;11.40;99.60;;;;;;5039136;28;20628;-65
2023/01/04 07:03:04;;;;;;;88.27;35.60;;;11.40;99.60;;;;;;5035107;28;20214;-65
2023/01/04 07:05:41;;;;;;;89.17;36.60;;;11.40;99.60;;;;;;5032930;28;20597;-65
2023/01/04 07:08:09;;;;;;;86.93;34.50;;;11.40;99.60;;;;;;5036630;28;20259;-65
2023/01/04 07:10:37;;;;;;;90.37;36.30;;;11.40;99.60;;;;;;5031366;28;20234;-65
2023/01/04 07:13:05;;;;;;;89.10;35.43;;;11.40;99.60;;;;;;5034746;28;20293;-65
2023/01/04 07:15:32;;;;;;;89.07;36.73;;;11.40;99.60;;;;;;5033825;28;20240;-65
2023/01/04 07:18:08;;;;;;;96.00;37.83;;;11.50;99.60;;;;;;5036215;28;20208;-65
2023/01/04 07:20:37;;;;;;;99.17;38.83;;;11.50;99.60;;;;;;5035458;28;20282;-65
2023/01/04 07:23:05;;;;;;;91.60;37.30;;;11.50;99.60;;;;;;5037455;28;20634;-65
2023/01/04 07:25:32;;;;;;;85.47;36.00;;;11.50;99.50;;;;;;5032052;28;20566;-65
2023/01/04 07:27:59;;;;;;;92.10;37.47;;;11.50;99.50;;;;;;5034240;28;20229;-65
2023/01/04 07:30:26;;;;;;;80.90;35.97;;;11.50;99.50;;;;;;5033285;28;20607;-65
2023/01/04 07:32:54;;;;;;;98.60;38.17;;;11.50;99.50;;;;;;5033242;28;20194;-65
2023/01/04 07:35:22;;;;;;;95.73;39.83;;;11.50;99.50;;;;;;5035994;28;20574;-65
2023/01/04 07:37:50;;;;;;;89.50;37.53;;;11.60;99.60;;;;;;5037639;28;20525;-65
2023/01/04 07:40:24;;;;;;;106.40;42.83;;;11.60;99.60;;;;;;5030800;28;20601;-65
2023/01/04 07:42:56;;;;;;;96.53;40.37;;;11.60;99.60;;;;;;5035252;28;20197;-65
2023/01/04 07:45:25;;;;;;;97.00;41.03;;;11.60;99.60;;;;;;5037423;28;20207;-65
2023/01/04 07:47:52;;;;;;;107.20;44.83;;;11.70;99.60;;;;;;5033872;28;20264;-65
2023/01/04 07:50:19;;;;;;;110.60;40.97;;;11.70;99.50;;;;;;5033907;28;20214;-65
2023/01/04 07:52:46;;;;;;;105.53;42.20;;;11.80;99.50;;;;;;5034908;28;20197;-65
2023/01/04 07:55:13;;;;;;;96.70;41.30;;;11.80;99.50;;;;;;5030003;28;20249;-65
2023/01/04 07:57:40;;;;;;;100.20;43.17;;;11.80;99.50;;;;;;5033409;28;20202;-65
2023/01/04 08:00:08;;;;;;;110.87;43.43;;;11.90;99.50;;;;;;5035669;28;20208;-65
2023/01/04 08:02:37;;;;;;;109.07;42.70;;;11.90;99.40;;;;;;5040833;28;20546;-65
2023/01/04 08:05:05;;;;;;;94.77;40.60;;;12.00;99.40;;;;;;5040183;28;20202;-65
2023/01/04 08:07:32;;;;;;;93.77;41.33;;;12.00;99.40;;;;;;5037128;28;20197;-65
2023/01/04 08:10:00;;;;;;;93.57;39.57;;;12.00;99.30;;;;;;5036378;28;20223;-65
2023/01/04 08:12:27;;;;;;;88.43;37.13;;;12.10;99.30;;;;;;5034525;28;20207;-65
2023/01/04 08:14:54;;;;;;;91.40;38.10;;;12.00;99.20;;;;;;5037890;28;20237;-65
2023/01/04 08:17:21;;;;;;;86.17;37.50;;;12.10;99.20;;;;;;5037470;28;20730;-65
2023/01/04 08:19:48;;;;;;;77.13;36.60;;;12.10;99.10;;;;;;5039592;28;20197;-65
2023/01/04 08:22:15;;;;;;;85.20;36.23;;;12.10;99.10;;;;;;5040487;28;20308;-65
2023/01/04 08:24:42;;;;;;;76.23;37.07;;;12.20;99.10;;;;;;5034000;28;20263;-65
2023/01/04 08:27:09;;;;;;;75.57;36.10;;;12.10;99.10;;;;;;5035749;28;20210;-65
2023/01/04 08:29:37;;;;;;;75.03;34.37;;;12.20;99.00;;;;;;5038346;28;20218;-65
2023/01/04 08:32:04;;;;;;;76.03;36.03;;;12.20;99.00;;;;;;5038995;28;20195;-64
2023/01/04 08:34:32;;;;;;;72.23;34.37;;;12.20;99.00;;;;;;5037506;28;20202;-65
2023/01/04 08:36:59;;;;;;;73.53;36.10;;;12.20;98.90;;;;;;5032968;28;20208;-65
2023/01/04 08:39:28;;;;;;;75.97;34.47;;;12.20;98.90;;;;;;5036152;28;20196;-65
2023/01/04 08:41:55;;;;;;;69.10;35.60;;;12.20;98.90;;;;;;5036198;28;20238;-65
2023/01/04 08:44:28;;;;;;;74.07;34.43;;;12.20;98.80;;;;;;5035776;28;20269;-65
2023/01/04 08:46:55;;;;;;;69.97;33.17;;;12.30;98.80;;;;;;5036495;28;20643;-65
2023/01/04 08:49:23;;;;;;;77.93;35.50;;;12.20;98.80;;;;;;5038973;28;20271;-65
2023/01/04 08:51:50;;;;;;;83.33;36.30;;;12.30;98.80;;;;;;5035669;28;20271;-65
2023/01/04 08:54:18;;;;;;;70.50;33.80;;;12.30;98.80;;;;;;5037454;28;20205;-65
2023/01/04 08:56:44;;;;;;;74.83;35.87;;;12.40;98.80;;;;;;5037920;28;20196;-65
2023/01/04 08:59:12;;;;;;;74.00;35.00;;;12.40;98.80;;;;;;5035807;28;20201;-65
2023/01/04 09:01:40;;;;;;;70.33;35.20;;;12.50;98.70;;;;;;5041099;28;20288;-65
2023/01/04 09:04:08;;;;;;;71.80;34.83;;;12.50;98.70;;;;;;5036913;28;20227;-65
2023/01/04 09:06:36;;;;;;;69.40;36.00;;;12.50;98.60;;;;;;5035868;28;20198;-65
2023/01/04 09:09:04;;;;;;;71.47;33.23;;;12.60;98.60;;;;;;5035696;28;20241;-65
2023/01/04 09:11:31;;;;;;;72.40;35.17;;;12.60;98.60;;;;;;5036544;28;20282;-64
2023/01/04 09:13:59;;;;;;;70.17;34.43;;;12.60;98.50;;;;;;5039650;28;20242;-65
2023/01/04 09:16:35;;;;;;;65.33;32.63;;;12.60;98.50;;;;;;5037331;28;20243;-66
2023/01/04 09:19:03;;;;;;;67.53;34.63;;;12.70;98.50;;;;;;5040603;28;20633;-65
2023/01/04 09:21:30;;;;;;;71.90;35.47;;;12.70;98.50;;;;;;5040365;28;20224;-65
2023/01/04 09:23:58;;;;;;;73.60;34.47;;;12.70;98.50;;;;;;5036621;28;20264;-65
2023/01/04 09:26:25;;;;;;;63.93;33.87;;;12.80;98.50;;;;;;5035878;28;20214;-65
2023/01/04 09:28:55;;;;;;;71.47;33.87;;;12.90;98.50;;;;;;5036499;28;20215;-65
2023/01/04 09:31:24;;;;;;;62.70;31.93;;;13.00;98.40;;;;;;5036055;28;20628;-65
2023/01/04 09:33:52;;;;;;;62.03;31.63;;;13.00;98.20;;;;;;5034625;28;20262;-65
2023/01/04 09:36:40;;;;;;;59.73;30.67;;;13.00;98.10;;;;;;5033649;28;20261;-65
2023/01/04 09:39:07;;;;;;;63.07;32.73;;;13.00;98.00;;;;;;5035556;28;20605;-65
2023/01/04 09:42:02;;;;;;;65.80;31.50;;;13.00;98.00;;;;;;5032781;28;20596;-65
2023/01/04 09:44:36;;;;;;;62.37;31.23;;;13.00;98.00;;;;;;5035585;28;20260;-65
2023/01/04 09:47:41;;;;;;;64.83;33.10;;;13.00;97.90;;;;;;5037040;28;20202;-65
2023/01/04 09:50:17;;;;;;;65.43;33.30;;;13.00;97.90;;;;;;5036004;28;20211;-65
2023/01/04 09:53:04;;;;;;;69.57;33.17;;;13.10;97.90;;;;;;5035080;28;20228;-65
2023/01/04 09:55:39;;;;;;;69.17;32.83;;;13.10;98.00;;;;;;5036212;28;20244;-65
2023/01/04 09:58:26;;;;;;;63.17;32.77;;;13.20;98.00;;;;;;5032944;28;20202;-65
2023/01/04 10:01:20;;;;;;;67.93;31.80;;;13.30;98.00;;;;;;5036113;28;20267;-65
2023/01/04 10:04:29;;;;;;;64.30;32.17;;;13.30;97.90;;;;;;5035173;28;20199;-65
2023/01/04 10:06:57;;;;;;;68.17;30.37;;;13.40;97.90;;;;;;5038697;28;20197;-65
2023/01/04 10:09:32;;;;;;;61.13;30.30;;;13.50;97.80;;;;;;5034450;28;20296;-65
2023/01/04 10:12:05;;;;;;;60.77;31.57;;;13.60;97.70;;;;;;5035421;28;20205;-65
2023/01/04 10:15:18;;;;;;;52.27;28.37;;;13.60;97.60;;;;;;5033767;28;20242;-65
2023/01/04 10:18:40;;;;;;;59.50;29.73;;;13.70;97.50;;;;;;5041617;28;20214;-65
2023/01/04 10:21:41;;;;;;;55.07;28.93;;;13.80;97.30;;;;;;5027269;28;20328;-65
2023/01/04 10:24:27;;;;;;;64.80;32.20;;;13.90;97.20;;;;;;5047321;28;20264;-65
2023/01/04 10:27:30;;;;;;;56.90;28.83;;;14.00;97.10;;;;;;5030517;28;20216;-65
2023/01/04 10:30:19;;;;;;;55.37;28.77;;;14.00;96.80;;;;;;5035858;28;20219;-65
2023/01/04 10:32:59;;;;;;;55.70;28.97;;;14.10;96.70;;;;;;5035449;28;20206;-65
2023/01/04 10:35:27;;;;;;;50.70;29.17;;;14.10;96.60;;;;;;5031915;28;20665;-65
2023/01/04 10:38:00;;;;;;;60.73;30.97;;;14.10;96.40;;;;;;5031408;28;20281;-65
2023/01/04 10:40:30;;;;;;;54.83;28.97;;;14.10;96.40;;;;;;5032746;28;20214;-65
2023/01/04 10:43:15;;;;;;;51.23;29.20;;;14.10;96.30;;;;;;5035326;28;20199;-64
2023/01/04 10:46:05;;;;;;;54.97;29.27;;;14.00;96.30;;;;;;5028491;28;20211;-65
2023/01/04 10:48:43;;;;;;;52.23;28.77;;;14.00;96.20;;;;;;5036944;28;20220;-65
2023/01/04 10:51:13;;;;;;;62.73;30.27;;;14.00;96.20;;;;;;5034915;28;20198;-65
2023/01/04 10:53:57;;;;;;;51.90;27.33;;;13.90;96.20;;;;;;5030375;28;20632;-65
2023/01/04 10:56:24;;;;;;;55.37;27.43;;;13.90;96.20;;;;;;5033764;28;20217;-65
2023/01/04 10:59:19;;;;;;;48.67;26.77;;;13.90;96.20;;;;;;5037561;28;20199;-65
2023/01/04 11:02:00;;;;;;;56.97;27.03;;;13.80;96.20;;;;;;5036959;28;20209;-65
2023/01/04 11:04:43;;;;;;;54.27;30.13;;;13.80;96.20;;;;;;5036324;28;20195;-65
2023/01/04 11:07:35;;;;;;;53.00;29.10;;;13.80;96.30;;;;;;5032777;28;20207;-65
2023/01/04 11:10:26;;;;;;;50.93;27.93;;;13.80;96.30;;;;;;5034935;28;20226;-66
2023/01/04 11:12:53;;;;;;;63.43;28.37;;;13.80;96.40;;;;;;5035791;28;20198;-65
2023/01/04 11:15:20;;;;;;;55.30;29.00;;;13.80;96.40;;;;;;5032530;28;20239;-65
2023/01/04 11:17:49;;;;;;;52.87;29.33;;;13.80;96.40;;;;;;5033901;28;20571;-65
2023/01/04 11:20:17;;;;;;;56.50;28.80;;;13.80;96.50;;;;;;5035425;28;20203;-65
2023/01/04 11:22:57;;;;;;;51.23;28.60;;;13.80;96.50;;;;;;5033896;28;20532;-65
2023/01/04 11:25:25;;;;;;;53.83;29.70;;;13.80;96.40;;;;;;5035237;28;20194;-65
2023/01/04 11:28:12;;;;;;;58.17;31.23;;;13.80;96.40;;;;;;5032979;28;20208;-65
2023/01/04 11:30:53;;;;;;;61.30;32.50;;;13.80;96.40;;;;;;5042559;28;20230;-65
2023/01/04 11:33:22;;;;;;;59.63;31.67;;;13.80;96.40;;;;;;5032392;28;20509;-65
2023/01/04 11:35:55;;;;;;;57.40;29.87;;;13.80;96.30;;;;;;5036229;28;20537;-65
2023/01/04 11:38:28;;;;;;;61.73;32.70;;;13.70;96.30;;;;;;5037086;28;20635;-65
2023/01/04 11:40:57;;;;;;;59.33;31.37;;;13.70;96.30;;;;;;5036484;28;20203;-65
2023/01/04 11:43:26;;;;;;;60.10;31.63;;;13.70;96.30;;;;;;5040379;28;20217;-65
2023/01/04 11:45:57;;;;;;;65.43;32.13;;;13.70;96.40;;;;;;5037608;28;20643;-65
2023/01/04 11:48:38;;;;;;;68.47;33.43;;;13.80;96.40;;;;;;5036101;28;20191;-65
2023/01/04 11:51:30;;;;;;;57.77;30.30;;;13.80;96.40;;;;;;5041278;28;20210;-65
2023/01/04 11:54:00;;;;;;;62.93;31.07;;;13.80;96.50;;;;;;5036641;28;20257;-65
2023/01/04 11:56:31;;;;;;;56.97;31.67;;;13.80;96.50;;;;;;5033769;28;20204;-65
2023/01/04 11:59:12;;;;;;;64.23;32.00;;;13.90;96.50;;;;;;5039669;28;20207;-65
2023/01/04 12:01:48;;;;;;;58.67;29.97;;;13.90;96.50;;;;;;5049661;28;20204;-65
2023/01/04 12:04:25;;;;;;;63.50;32.00;;;13.90;96.40;;;;;;5042112;28;20208;-65
2023/01/04 12:07:14;;;;;;;62.47;30.47;;;13.90;96.40;;;;;;5034760;28;20193;-64
2023/01/04 12:09:41;;;;;;;60.50;31.00;;;13.90;96.30;;;;;;5033919;28;20218;-65
2023/01/04 12:12:12;;;;;;;63.30;30.60;;;13.90;96.30;;;;;;5036627;28;20203;-65
2023/01/04 12:14:48;;;;;;;59.53;30.33;;;13.90;96.30;;;;;;5035612;28;20540;-65
2023/01/04 12:17:22;;;;;;;65.67;32.53;;;13.90;96.20;;;;;;5037086;28;20199;-65
2023/01/04 12:19:53;;;;;;;63.07;32.27;;;13.90;96.20;;;;;;5042378;28;20241;-65
2023/01/04 12:22:23;;;;;;;57.47;31.63;;;13.90;96.20;;;;;;5040619;28;20564;-65
2023/01/04 12:24:50;;;;;;;65.93;31.73;;;13.90;96.20;;;;;;5036678;28;20205;-65
2023/01/04 12:27:26;;;;;;;65.17;30.40;;;13.80;96.20;;;;;;5035492;28;20539;-65
2023/01/04 12:29:58;;;;;;;58.67;30.37;;;13.80;96.30;;;;;;5035958;28;20566;-65
2023/01/04 12:32:25;;;;;;;61.67;31.07;;;13.80;96.40;;;;;;5038809;28;20191;-65
2023/01/04 12:34:53;;;;;;;70.87;33.73;;;13.80;96.40;;;;;;5034229;28;20217;-65
2023/01/04 12:37:44;;;;;;;65.07;31.87;;;13.90;96.50;;;;;;5034553;28;20198;-65
2023/01/04 12:40:45;;;;;;;62.73;33.00;;;13.90;96.40;;;;;;5036865;28;20203;-65
2023/01/04 12:43:16;;;;;;;65.30;30.63;;;13.90;96.40;;;;;;5037885;28;20234;-65
2023/01/04 12:45:47;;;;;;;67.60;32.47;;;14.00;96.40;;;;;;5036122;28;20282;-65
2023/01/04 12:51:20;;;;;;;58.80;29.73;;;14.00;96.30;;;;;;5039345;28;20211;-65
2023/01/04 12:54:30;;;;;;;54.60;28.03;;;14.00;96.20;;;;;;5034999;28;20241;-65
2023/01/04 12:57:16;;;;;;;58.20;29.63;;;14.00;96.20;;;;;;5035293;28;20210;-65
2023/01/04 13:00:02;;;;;;;53.67;29.03;;;14.00;96.20;;;;;;5039005;28;20298;-65
2023/01/04 13:02:49;;;;;;;59.67;30.73;;;14.00;96.20;;;;;;5038387;28;20213;-65
2023/01/04 13:05:17;;;;;;;59.63;31.00;;;14.00;96.20;;;;;;5040575;28;20260;-65
2023/01/04 13:08:10;;;;;;;56.83;30.10;;;13.90;96.30;;;;;;5036360;28;20625;-65
2023/01/04 13:10:40;;;;;;;66.37;33.10;;;14.00;96.30;;;;;;5036611;28;20229;-65
2023/01/04 13:13:26;;;;;;;57.57;31.20;;;14.00;96.30;;;;;;5041224;28;20648;-65
2023/01/04 13:16:23;;;;;;;62.77;31.90;;;14.00;96.30;;;;;;5035440;28;20308;-65
2023/01/04 13:18:56;;;;;;;57.17;32.43;;;14.00;96.30;;;;;;5038563;28;20289;-65
2023/01/04 13:21:40;;;;;;;58.77;31.93;;;14.00;96.30;;;;;;5042759;28;20214;-65
2023/01/04 13:24:13;;;;;;;60.20;32.13;;;14.00;96.30;;;;;;5034072;28;20206;-65
2023/01/04 13:26:44;;;;;;;56.60;31.70;;;14.10;96.30;;;;;;5035297;28;21098;-65
2023/01/04 13:29:24;;;;;;;53.30;29.60;;;14.10;96.30;;;;;;5041026;28;20265;-65
2023/01/04 13:31:54;;;;;;;49.53;30.00;;;14.10;96.20;;;;;;5036518;28;20683;-65
2023/01/04 13:34:24;;;;;;;51.83;28.83;;;14.10;96.20;;;;;;5036604;28;20206;-65
2023/01/04 13:37:13;;;;;;;53.47;31.03;;;14.10;96.10;;;;;;5034574;28;20539;-65
2023/01/04 13:39:49;;;;;;;46.67;28.50;;;14.10;96.10;;;;;;5041921;28;20220;-65
2023/01/04 13:42:30;;;;;;;51.37;29.40;;;14.10;96.10;;;;;;5035469;28;20202;-65
2023/01/04 13:45:09;;;;;;;52.50;30.87;;;14.10;96.10;;;;;;5033297;28;20216;-65